sensor_id;sensor_type;location;lat;lon;timestamp;pressure;altitude;pressure_sealevel;temperature;humidity
42385;BME280;28042;43.986;22.860;2023-01-30T00:01:30;101826.41;;;1.48;89.07
42385;BME280;28042;43.986;22.860;2023-01-30T00:03:55;101825.34;;;1.50;88.48
42385;BME280;28042;43.986;22.860;2023-01-30T00:06:21;101818.13;;;1.51;88.40
42385;BME280;28042;43.986;22.860;2023-01-30T00:08:46;101829.75;;;1.51;88.50
42385;BME280;28042;43.986;22.860;2023-01-30T00:11:13;101814.47;;;1.52;88.10
42385;BME280;28042;43.986;22.860;2023-01-30T00:13:39;101805.41;;;1.53;89.15
42385;BME280;28042;43.986;22.860;2023-01-30T00:16:05;101816.19;;;1.53;89.85
42385;BME280;28042;43.986;22.860;2023-01-30T00:18:31;101814.47;;;1.52;91.18
42385;BME280;28042;43.986;22.860;2023-01-30T00:21:00;101816.41;;;1.50;91.60
42385;BME280;28042;43.986;22.860;2023-01-30T00:23:26;101813.72;;;1.50;91.37
42385;BME280;28042;43.986;22.860;2023-01-30T00:25:52;101809.53;;;1.46;91.92
42385;BME280;28042;43.986;22.860;2023-01-30T00:28:17;101818.13;;;1.51;92.17
42385;BME280;28042;43.986;22.860;2023-01-30T00:30:42;101810.81;;;1.53;90.33
42385;BME280;28042;43.986;22.860;2023-01-30T00:33:08;101812.31;;;1.57;90.08
42385;BME280;28042;43.986;22.860;2023-01-30T00:35:34;101807.88;;;1.56;90.29
42385;BME280;28042;43.986;22.860;2023-01-30T00:37:59;101802.50;;;1.56;89.15
42385;BME280;28042;43.986;22.860;2023-01-30T00:40:25;101814.22;;;1.55;88.47
42385;BME280;28042;43.986;22.860;2023-01-30T00:42:51;101807.66;;;1.59;88.64
42385;BME280;28042;43.986;22.860;2023-01-30T00:45:34;101813.91;;;1.59;89.21
42385;BME280;28042;43.986;22.860;2023-01-30T00:48:21;101816.25;;;1.64;89.23
42385;BME280;28042;43.986;22.860;2023-01-30T00:50:46;101810.00;;;1.63;89.16
42385;BME280;28042;43.986;22.860;2023-01-30T00:53:12;101814.66;;;1.61;90.56
42385;BME280;28042;43.986;22.860;2023-01-30T00:55:38;101817.69;;;1.57;89.56
42385;BME280;28042;43.986;22.860;2023-01-30T00:58:03;101810.56;;;1.56;90.22
42385;BME280;28042;43.986;22.860;2023-01-30T01:00:29;101803.47;;;1.55;90.46
42385;BME280;28042;43.986;22.860;2023-01-30T01:02:54;101793.56;;;1.55;89.34
42385;BME280;28042;43.986;22.860;2023-01-30T01:05:19;101796.19;;;1.57;88.61
42385;BME280;28042;43.986;22.860;2023-01-30T01:07:45;101794.44;;;1.56;88.54
42385;BME280;28042;43.986;22.860;2023-01-30T01:10:10;101789.28;;;1.53;87.75
42385;BME280;28042;43.986;22.860;2023-01-30T01:12:43;101790.03;;;1.55;88.28
42385;BME280;28042;43.986;22.860;2023-01-30T01:15:09;101797.13;;;1.56;88.29
42385;BME280;28042;43.986;22.860;2023-01-30T01:17:36;101794.44;;;1.56;89.11
42385;BME280;28042;43.986;22.860;2023-01-30T01:20:01;101789.53;;;1.50;88.58
42385;BME280;28042;43.986;22.860;2023-01-30T01:22:26;101787.81;;;1.49;89.52
42385;BME280;28042;43.986;22.860;2023-01-30T01:24:52;101789.53;;;1.50;88.62
42385;BME280;28042;43.986;22.860;2023-01-30T01:27:17;101779.50;;;1.52;88.97
42385;BME280;28042;43.986;22.860;2023-01-30T01:29:43;101779.84;;;1.47;88.92
42385;BME280;28042;43.986;22.860;2023-01-30T01:32:08;101774.38;;;1.49;88.19
42385;BME280;28042;43.986;22.860;2023-01-30T01:34:34;101786.06;;;1.48;88.15
42385;BME280;28042;43.986;22.860;2023-01-30T01:36:59;101773.59;;;1.47;89.24
42385;BME280;28042;43.986;22.860;2023-01-30T01:39:24;101773.72;;;1.45;89.56
42385;BME280;28042;43.986;22.860;2023-01-30T01:42:09;101771.16;;;1.44;88.85
42385;BME280;28042;43.986;22.860;2023-01-30T01:47:18;101754.91;;;1.45;88.52
42385;BME280;28042;43.986;22.860;2023-01-30T01:49:44;101765.66;;;1.45;89.02
42385;BME280;28042;43.986;22.860;2023-01-30T01:52:12;101771.16;;;1.44;88.61
42385;BME280;28042;43.986;22.860;2023-01-30T01:54:52;101764.78;;;1.45;88.63
42385;BME280;28042;43.986;22.860;2023-01-30T01:57:28;101767.38;;;1.46;89.47
42385;BME280;28042;43.986;22.860;2023-01-30T02:00:01;101756.84;;;1.43;89.42
42385;BME280;28042;43.986;22.860;2023-01-30T02:02:29;101758.56;;;1.44;89.45
42385;BME280;28042;43.986;22.860;2023-01-30T02:04:56;101755.75;;;1.46;89.09
42385;BME280;28042;43.986;22.860;2023-01-30T02:10:08;101762.09;;;1.45;89.82
42385;BME280;28042;43.986;22.860;2023-01-30T02:12:34;101761.38;;;1.42;89.17
42385;BME280;28042;43.986;22.860;2023-01-30T02:15:01;101756.00;;;1.42;89.94
42385;BME280;28042;43.986;22.860;2023-01-30T02:17:26;101758.69;;;1.42;91.19
42385;BME280;28042;43.986;22.860;2023-01-30T02:20:03;101754.28;;;1.41;91.73
42385;BME280;28042;43.986;22.860;2023-01-30T02:40:58;101745.69;;;1.36;92.46
42385;BME280;28042;43.986;22.860;2023-01-30T02:43:43;101743.84;;;1.37;93.10
42385;BME280;28042;43.986;22.860;2023-01-30T02:51:02;101752.16;;;1.34;93.86
42385;BME280;28042;43.986;22.860;2023-01-30T02:53:30;101758.63;;;1.31;93.92
42385;BME280;28042;43.986;22.860;2023-01-30T02:55:56;101747.00;;;1.31;95.14
42385;BME280;28042;43.986;22.860;2023-01-30T02:58:22;101751.53;;;1.30;95.76
42385;BME280;28042;43.986;22.860;2023-01-30T03:08:54;101751.97;;;1.24;96.08
42385;BME280;28042;43.986;22.860;2023-01-30T03:11:23;101737.56;;;1.25;96.01
42385;BME280;28042;43.986;22.860;2023-01-30T03:13:54;101738.84;;;1.20;97.35
42385;BME280;28042;43.986;22.860;2023-01-30T03:16:26;101742.38;;;1.20;96.76
42385;BME280;28042;43.986;22.860;2023-01-30T03:18:53;101737.03;;;1.20;97.35
42385;BME280;28042;43.986;22.860;2023-01-30T03:21:19;101728.09;;;1.20;98.18
42385;BME280;28042;43.986;22.860;2023-01-30T03:23:45;101725.53;;;1.18;97.70
42385;BME280;28042;43.986;22.860;2023-01-30T03:26:13;101719.91;;;1.21;97.89
42385;BME280;28042;43.986;22.860;2023-01-30T03:28:41;101726.38;;;1.19;98.87
42385;BME280;28042;43.986;22.860;2023-01-30T03:31:06;101716.84;;;1.15;99.10
42385;BME280;28042;43.986;22.860;2023-01-30T03:33:33;101721.88;;;1.19;98.62
42385;BME280;28042;43.986;22.860;2023-01-30T03:35:58;101719.41;;;1.16;99.54
42385;BME280;28042;43.986;22.860;2023-01-30T03:38:23;101717.81;;;1.13;99.80
42385;BME280;28042;43.986;22.860;2023-01-30T03:40:49;101712.44;;;1.13;100.00
42385;BME280;28042;43.986;22.860;2023-01-30T03:43:14;101717.91;;;1.12;100.00
42385;BME280;28042;43.986;22.860;2023-01-30T03:45:39;101714.38;;;1.11;100.00
42385;BME280;28042;43.986;22.860;2023-01-30T03:48:05;101717.41;;;1.07;100.00
42385;BME280;28042;43.986;22.860;2023-01-30T03:50:30;101719.13;;;1.08;100.00
42385;BME280;28042;43.986;22.860;2023-01-30T03:52:55;101716.44;;;1.08;100.00
42385;BME280;28042;43.986;22.860;2023-01-30T03:55:21;101711.78;;;1.10;100.00
42385;BME280;28042;43.986;22.860;2023-01-30T03:57:46;101710.31;;;1.06;99.93
42385;BME280;28042;43.986;22.860;2023-01-30T04:00:11;101710.09;;;1.09;99.93
42385;BME280;28042;43.986;22.860;2023-01-30T04:02:37;101712.53;;;1.12;100.00
42385;BME280;28042;43.986;22.860;2023-01-30T04:05:03;101712.53;;;1.12;99.83
42385;BME280;28042;43.986;22.860;2023-01-30T04:07:28;101707.16;;;1.12;100.00
42385;BME280;28042;43.986;22.860;2023-01-30T04:09:54;101709.84;;;1.12;100.00
42385;BME280;28042;43.986;22.860;2023-01-30T04:12:19;101704.47;;;1.12;100.00
42385;BME280;28042;43.986;22.860;2023-01-30T04:14:44;101699.22;;;1.10;100.00
42385;BME280;28042;43.986;22.860;2023-01-30T04:17:09;101702.03;;;1.09;100.00
42385;BME280;28042;43.986;22.860;2023-01-30T04:19:35;101703.00;;;1.08;100.00
42385;BME280;28042;43.986;22.860;2023-01-30T04:22:00;101699.78;;;1.03;100.00
42385;BME280;28042;43.986;22.860;2023-01-30T04:24:25;101690.97;;;1.01;100.00
42385;BME280;28042;43.986;22.860;2023-01-30T04:26:51;101690.97;;;1.01;100.00
42385;BME280;28042;43.986;22.860;2023-01-30T04:29:16;101695.25;;;1.03;98.05
42385;BME280;28042;43.986;22.860;2023-01-30T04:31:41;101699.78;;;1.03;96.17
42385;BME280;28042;43.986;22.860;2023-01-30T04:34:06;101690.97;;;1.01;95.15
42385;BME280;28042;43.986;22.860;2023-01-30T04:36:32;101690.25;;;0.99;93.63
42385;BME280;28042;43.986;22.860;2023-01-30T04:38:57;101690.25;;;0.99;92.92
42385;BME280;28042;43.986;22.860;2023-01-30T04:41:22;101698.28;;;0.99;93.93
42385;BME280;28042;43.986;22.860;2023-01-30T04:43:48;101700.44;;;0.94;93.57
42385;BME280;28042;43.986;22.860;2023-01-30T04:46:13;101706.59;;;0.96;93.70
42385;BME280;28042;43.986;22.860;2023-01-30T04:48:38;101702.94;;;0.97;93.23
42385;BME280;28042;43.986;22.860;2023-01-30T04:51:04;101688.00;;;0.93;93.93
42385;BME280;28042;43.986;22.860;2023-01-30T04:53:29;101693.34;;;0.93;92.34
42385;BME280;28042;43.986;22.860;2023-01-30T04:55:55;101694.34;;;0.92;91.07
42385;BME280;28042;43.986;22.860;2023-01-30T04:58:20;101695.31;;;0.91;89.92
42385;BME280;28042;43.986;22.860;2023-01-30T05:00:46;101701.66;;;0.90;89.18
42385;BME280;28042;43.986;22.860;2023-01-30T05:03:11;101706.28;;;0.88;88.73
42385;BME280;28042;43.986;22.860;2023-01-30T05:05:36;101705.31;;;0.89;87.49
42385;BME280;28042;43.986;22.860;2023-01-30T05:08:02;101702.63;;;0.89;86.71
42385;BME280;28042;43.986;22.860;2023-01-30T05:10:27;101705.31;;;0.89;86.28
42385;BME280;28042;43.986;22.860;2023-01-30T05:12:53;101701.09;;;0.84;85.92
42385;BME280;28042;43.986;22.860;2023-01-30T05:15:18;101698.22;;;0.88;87.31
42385;BME280;28042;43.986;22.860;2023-01-30T05:17:43;101702.38;;;0.92;86.89
42385;BME280;28042;43.986;22.860;2023-01-30T05:20:09;101700.13;;;0.85;87.44
42385;BME280;28042;43.986;22.860;2023-01-30T05:22:34;101706.47;;;0.84;86.63
42385;BME280;28042;43.986;22.860;2023-01-30T05:25:00;101702.19;;;0.82;87.14
42385;BME280;28042;43.986;22.860;2023-01-30T05:27:26;101702.94;;;0.84;86.39
42385;BME280;28042;43.986;22.860;2023-01-30T05:29:51;101695.97;;;0.81;85.90
42385;BME280;28042;43.986;22.860;2023-01-30T05:32:17;101693.53;;;0.78;85.31
42385;BME280;28042;43.986;22.860;2023-01-30T05:34:43;101698.13;;;0.76;83.73
42385;BME280;28042;43.986;22.860;2023-01-30T05:37:08;101702.50;;;0.77;83.47
42385;BME280;28042;43.986;22.860;2023-01-30T05:39:34;101703.47;;;0.76;83.49
42385;BME280;28042;43.986;22.860;2023-01-30T05:41:59;101701.78;;;0.75;84.26
42385;BME280;28042;43.986;22.860;2023-01-30T05:44:25;101693.72;;;0.75;83.77
42385;BME280;28042;43.986;22.860;2023-01-30T05:46:50;101696.63;;;0.72;84.27
42385;BME280;28042;43.986;22.860;2023-01-30T05:49:15;101699.31;;;0.72;83.64
42385;BME280;28042;43.986;22.860;2023-01-30T05:51:41;101699.31;;;0.72;83.45
42385;BME280;28042;43.986;22.860;2023-01-30T05:54:06;101702.00;;;0.72;83.07
42385;BME280;28042;43.986;22.860;2023-01-30T05:56:31;101702.75;;;0.74;83.33
42385;BME280;28042;43.986;22.860;2023-01-30T05:58:57;101700.69;;;0.78;83.61
42385;BME280;28042;43.986;22.860;2023-01-30T06:01:23;101710.81;;;0.74;83.41
42385;BME280;28042;43.986;22.860;2023-01-30T06:03:49;101720.38;;;0.78;83.16
42385;BME280;28042;43.986;22.860;2023-01-30T06:06:14;101712.50;;;0.75;83.70
42385;BME280;28042;43.986;22.860;2023-01-30T06:08:40;101720.06;;;0.70;82.48
42385;BME280;28042;43.986;22.860;2023-01-30T06:11:09;101709.50;;;0.67;83.17
42385;BME280;28042;43.986;22.860;2023-01-30T06:13:35;101712.09;;;0.69;83.24
42385;BME280;28042;43.986;22.860;2023-01-30T06:16:01;101710.59;;;0.65;82.28
42385;BME280;28042;43.986;22.860;2023-01-30T06:18:26;101702.19;;;0.69;81.85
42385;BME280;28042;43.986;22.860;2023-01-30T06:20:52;101707.91;;;0.65;82.36
42385;BME280;28042;43.986;22.860;2023-01-30T06:23:18;101706.31;;;0.62;82.03
42385;BME280;28042;43.986;22.860;2023-01-30T06:25:44;101712.97;;;0.56;81.48
42385;BME280;28042;43.986;22.860;2023-01-30T06:28:09;101711.03;;;0.59;82.41
42385;BME280;28042;43.986;22.860;2023-01-30T06:30:35;101710.41;;;0.55;81.96
42385;BME280;28042;43.986;22.860;2023-01-30T06:33:00;101707.72;;;0.55;81.90
42385;BME280;28042;43.986;22.860;2023-01-30T06:35:25;101705.22;;;0.52;82.45
42385;BME280;28042;43.986;22.860;2023-01-30T06:37:51;101711.47;;;0.52;81.60
42385;BME280;28042;43.986;22.860;2023-01-30T06:40:16;101702.66;;;0.50;82.37
42385;BME280;28042;43.986;22.860;2023-01-30T06:42:45;101713.50;;;0.49;82.27
42385;BME280;28042;43.986;22.860;2023-01-30T06:45:11;101712.97;;;0.56;82.19
42385;BME280;28042;43.986;22.860;2023-01-30T06:47:44;101707.72;;;0.55;82.67
42385;BME280;28042;43.986;22.860;2023-01-30T06:50:09;101711.25;;;0.55;82.41
42385;BME280;28042;43.986;22.860;2023-01-30T06:52:35;101710.59;;;0.52;81.61
42385;BME280;28042;43.986;22.860;2023-01-30T06:55:04;101714.16;;;0.52;81.80
42385;BME280;28042;43.986;22.860;2023-01-30T06:57:29;101713.28;;;0.52;81.64
42385;BME280;28042;43.986;22.860;2023-01-30T06:59:55;101704.38;;;0.51;81.85
42385;BME280;28042;43.986;22.860;2023-01-30T07:02:20;101693.53;;;0.53;81.87
42385;BME280;28042;43.986;22.860;2023-01-30T07:04:45;101705.22;;;0.52;80.76
42385;BME280;28042;43.986;22.860;2023-01-30T07:07:10;101704.59;;;0.48;80.35
42385;BME280;28042;43.986;22.860;2023-01-30T07:09:36;101715.66;;;0.56;80.28
42385;BME280;28042;43.986;22.860;2023-01-30T07:12:01;101709.19;;;0.59;80.31
42385;BME280;28042;43.986;22.860;2023-01-30T07:14:26;101710.59;;;0.65;80.32
42385;BME280;28042;43.986;22.860;2023-01-30T07:16:51;101702.31;;;0.68;80.51
42385;BME280;28042;43.986;22.860;2023-01-30T07:19:17;101696.19;;;0.78;80.57
42385;BME280;28042;43.986;22.860;2023-01-30T07:21:42;101714.22;;;0.76;78.95
42385;BME280;28042;43.986;22.860;2023-01-30T07:24:07;101716.72;;;0.67;78.98
42385;BME280;28042;43.986;22.860;2023-01-30T07:26:33;101719.28;;;0.68;79.15
42385;BME280;28042;43.986;22.860;2023-01-30T07:28:59;101728.53;;;0.64;78.41
42385;BME280;28042;43.986;22.860;2023-01-30T07:31:24;101720.38;;;0.66;79.23
42385;BME280;28042;43.986;22.860;2023-01-30T07:33:49;101721.78;;;0.71;78.71
42385;BME280;28042;43.986;22.860;2023-01-30T07:36:14;101733.25;;;0.73;78.46
42385;BME280;28042;43.986;22.860;2023-01-30T07:38:40;101713.25;;;0.77;78.36
42385;BME280;28042;43.986;22.860;2023-01-30T07:41:05;101717.88;;;0.88;79.39
42385;BME280;28042;43.986;22.860;2023-01-30T07:43:31;101715.81;;;0.92;78.04
42385;BME280;28042;43.986;22.860;2023-01-30T07:45:56;101719.34;;;0.92;78.20
42385;BME280;28042;43.986;22.860;2023-01-30T07:48:21;101713.13;;;0.92;78.40
42385;BME280;28042;43.986;22.860;2023-01-30T07:50:47;101720.44;;;0.90;79.10
42385;BME280;28042;43.986;22.860;2023-01-30T07:53:13;101712.59;;;0.87;79.69
42385;BME280;28042;43.986;22.860;2023-01-30T07:55:39;101707.44;;;0.83;79.40
42385;BME280;28042;43.986;22.860;2023-01-30T07:58:04;101697.25;;;0.76;79.26
42385;BME280;28042;43.986;22.860;2023-01-30T08:00:30;101703.72;;;0.73;79.77
42385;BME280;28042;43.986;22.860;2023-01-30T08:02:55;101694.69;;;0.74;80.61
42385;BME280;28042;43.986;22.860;2023-01-30T08:05:21;101695.97;;;0.81;81.23
42385;BME280;28042;43.986;22.860;2023-01-30T08:07:46;101686.09;;;0.82;80.95
42385;BME280;28042;43.986;22.860;2023-01-30T08:10:12;101697.69;;;0.82;81.06
42385;BME280;28042;43.986;22.860;2023-01-30T08:12:38;101697.03;;;0.92;80.79
42385;BME280;28042;43.986;22.860;2023-01-30T08:15:04;101693.34;;;0.93;80.21
42385;BME280;28042;43.986;22.860;2023-01-30T08:17:29;101698.00;;;0.91;78.93
42385;BME280;28042;43.986;22.860;2023-01-30T08:19:54;101688.41;;;0.87;77.90
42385;BME280;28042;43.986;22.860;2023-01-30T08:22:20;101691.66;;;0.92;77.63
42385;BME280;28042;43.986;22.860;2023-01-30T08:24:45;101704.97;;;0.93;77.12
42385;BME280;28042;43.986;22.860;2023-01-30T08:27:11;101697.44;;;0.98;76.93
42385;BME280;28042;43.986;22.860;2023-01-30T08:29:36;101693.28;;;1.18;75.74
42385;BME280;28042;43.986;22.860;2023-01-30T08:32:01;101705.06;;;1.28;76.08
42385;BME280;28042;43.986;22.860;2023-01-30T08:34:27;101696.72;;;1.20;73.81
42385;BME280;28042;43.986;22.860;2023-01-30T08:36:52;101698.66;;;1.18;73.14
42385;BME280;28042;43.986;22.860;2023-01-30T08:39:18;101697.19;;;1.14;72.46
42385;BME280;28042;43.986;22.860;2023-01-30T08:41:43;101708.13;;;1.11;72.57
42385;BME280;28042;43.986;22.860;2023-01-30T08:44:09;101701.22;;;1.20;73.49
42385;BME280;28042;43.986;22.860;2023-01-30T08:46:34;101708.22;;;1.22;71.90
42385;BME280;28042;43.986;22.860;2023-01-30T08:48:59;101704.19;;;1.40;71.67
42385;BME280;28042;43.986;22.860;2023-01-30T08:51:25;101713.28;;;1.51;71.43
42385;BME280;28042;43.986;22.860;2023-01-30T08:53:50;101709.72;;;1.26;69.25
42385;BME280;28042;43.986;22.860;2023-01-30T08:56:16;101704.56;;;1.23;68.96
42385;BME280;28042;43.986;22.860;2023-01-30T08:58:41;101705.97;;;1.16;68.99
42385;BME280;28042;43.986;22.860;2023-01-30T09:01:07;101696.81;;;1.19;69.52
42385;BME280;28042;43.986;22.860;2023-01-30T09:03:33;101702.09;;;1.20;68.73
42385;BME280;28042;43.986;22.860;2023-01-30T09:05:58;101703.59;;;1.24;68.25
42385;BME280;28042;43.986;22.860;2023-01-30T09:08:24;101685.53;;;1.26;68.69
42385;BME280;28042;43.986;22.860;2023-01-30T09:10:49;101684.84;;;1.35;67.82
42385;BME280;28042;43.986;22.860;2023-01-30T09:13:14;101685.38;;;1.40;67.44
42385;BME280;28042;43.986;22.860;2023-01-30T09:15:41;101681.16;;;1.36;67.11
42385;BME280;28042;43.986;22.860;2023-01-30T09:18:06;101694.16;;;1.19;66.44
42385;BME280;28042;43.986;22.860;2023-01-30T09:20:32;101679.56;;;1.10;66.79
42385;BME280;28042;43.986;22.860;2023-01-30T09:22:57;101679.78;;;1.07;66.99
42385;BME280;28042;43.986;22.860;2023-01-30T09:25:22;101663.59;;;1.20;67.24
42385;BME280;28042;43.986;22.860;2023-01-30T09:27:48;101667.38;;;1.17;65.71
42385;BME280;28042;43.986;22.860;2023-01-30T09:30:14;101667.50;;;1.16;66.06
42385;BME280;28042;43.986;22.860;2023-01-30T09:32:39;101664.84;;;1.39;66.82
42385;BME280;28042;43.986;22.860;2023-01-30T09:35:04;101664.88;;;1.51;66.53
42385;BME280;28042;43.986;22.860;2023-01-30T09:37:30;101658.97;;;1.46;65.81
42385;BME280;28042;43.986;22.860;2023-01-30T09:39:55;101652.13;;;1.41;64.93
42385;BME280;28042;43.986;22.860;2023-01-30T09:47:43;101643.38;;;1.51;66.59
42385;BME280;28042;43.986;22.860;2023-01-30T09:50:32;101639.44;;;1.44;65.56
42385;BME280;28042;43.986;22.860;2023-01-30T09:55:28;101626.28;;;1.63;67.53
42385;BME280;28042;43.986;22.860;2023-01-30T09:57:55;101635.16;;;1.87;66.31
42385;BME280;28042;43.986;22.860;2023-01-30T10:00:34;101628.28;;;1.72;64.69
42385;BME280;28042;43.986;22.860;2023-01-30T10:05:40;101609.66;;;1.58;65.17
42385;BME280;28042;43.986;22.860;2023-01-30T10:21:07;101587.66;;;1.64;64.15
42385;BME280;28042;43.986;22.860;2023-01-30T10:26:20;101580.25;;;1.67;64.12
42385;BME280;28042;43.986;22.860;2023-01-30T10:29:02;101570.25;;;1.92;65.70
42385;BME280;28042;43.986;22.860;2023-01-30T10:34:18;101576.38;;;1.83;63.41
42385;BME280;28042;43.986;22.860;2023-01-30T10:36:47;101557.16;;;1.87;64.22
42385;BME280;28042;43.986;22.860;2023-01-30T10:42:08;101552.88;;;1.85;62.71
42385;BME280;28042;43.986;22.860;2023-01-30T10:44:34;101541.53;;;2.04;62.96
42385;BME280;28042;43.986;22.860;2023-01-30T11:04:44;101489.94;;;2.96;57.52
42385;BME280;28042;43.986;22.860;2023-01-30T11:07:12;101495.88;;;2.68;57.82
42385;BME280;28042;43.986;22.860;2023-01-30T11:09:45;101477.34;;;2.42;59.06
42385;BME280;28042;43.986;22.860;2023-01-30T11:12:11;101467.09;;;2.25;58.98
42385;BME280;28042;43.986;22.860;2023-01-30T11:14:49;101465.84;;;2.40;59.59
42385;BME280;28042;43.986;22.860;2023-01-30T11:17:16;101453.25;;;2.52;58.52
42385;BME280;28042;43.986;22.860;2023-01-30T11:19:42;101438.16;;;2.61;58.88
42385;BME280;28042;43.986;22.860;2023-01-30T11:22:12;101420.81;;;2.95;59.10
42385;BME280;28042;43.986;22.860;2023-01-30T11:24:39;101417.28;;;3.16;57.05
42385;BME280;28042;43.986;22.860;2023-01-30T11:27:09;101413.53;;;2.86;57.55
42385;BME280;28042;43.986;22.860;2023-01-30T11:29:36;101425.66;;;2.60;58.25
42385;BME280;28042;43.986;22.860;2023-01-30T11:32:03;101399.59;;;2.28;58.52
42385;BME280;28042;43.986;22.860;2023-01-30T11:34:29;101397.13;;;2.36;59.54
42385;BME280;28042;43.986;22.860;2023-01-30T11:37:11;101385.22;;;2.39;59.54
42385;BME280;28042;43.986;22.860;2023-01-30T11:39:36;101376.59;;;2.24;60.07
42385;BME280;28042;43.986;22.860;2023-01-30T11:42:02;101370.47;;;2.22;60.15
42385;BME280;28042;43.986;22.860;2023-01-30T11:44:35;101367.09;;;2.41;60.84
42385;BME280;28042;43.986;22.860;2023-01-30T11:47:06;101373.03;;;2.35;60.89
42385;BME280;28042;43.986;22.860;2023-01-30T11:49:38;101366.75;;;2.34;60.80
42385;BME280;28042;43.986;22.860;2023-01-30T11:52:05;101360.34;;;2.46;60.38
42385;BME280;28042;43.986;22.860;2023-01-30T11:54:36;101343.75;;;2.62;59.88
42385;BME280;28042;43.986;22.860;2023-01-30T11:57:03;101335.38;;;2.86;59.57
42385;BME280;28042;43.986;22.860;2023-01-30T12:02:19;101353.03;;;2.90;57.97
42385;BME280;28042;43.986;22.860;2023-01-30T12:04:45;101319.38;;;2.84;60.60
42385;BME280;28042;43.986;22.860;2023-01-30T12:07:29;101333.25;;;3.10;59.95
42385;BME280;28042;43.986;22.860;2023-01-30T12:09:56;101327.44;;;3.05;58.19
42385;BME280;28042;43.986;22.860;2023-01-30T12:12:36;101323.69;;;2.76;59.54
42385;BME280;28042;43.986;22.860;2023-01-30T12:20:32;101298.94;;;3.12;58.84
42385;BME280;28042;43.986;22.860;2023-01-30T12:23:04;101309.84;;;3.42;58.62
42385;BME280;28042;43.986;22.860;2023-01-30T12:25:41;101299.88;;;3.23;58.16
42385;BME280;28042;43.986;22.860;2023-01-30T12:28:24;101295.31;;;3.23;57.82
42385;BME280;28042;43.986;22.860;2023-01-30T12:30:57;101299.31;;;2.98;58.02
42385;BME280;28042;43.986;22.860;2023-01-30T12:33:27;101299.19;;;3.00;59.10
42385;BME280;28042;43.986;22.860;2023-01-30T12:43:47;101270.31;;;3.61;56.79
42385;BME280;28042;43.986;22.860;2023-01-30T12:46:21;101280.69;;;3.66;57.39
42385;BME280;28042;43.986;22.860;2023-01-30T12:53:50;101269.75;;;3.67;56.00
42385;BME280;28042;43.986;22.860;2023-01-30T13:04:32;101266.78;;;3.90;56.13
42385;BME280;28042;43.986;22.860;2023-01-30T13:23:01;101224.97;;;3.46;57.31
42385;BME280;28042;43.986;22.860;2023-01-30T13:27:57;101215.63;;;3.50;57.80
42385;BME280;28042;43.986;22.860;2023-01-30T13:30:24;101205.94;;;3.37;57.66
42385;BME280;28042;43.986;22.860;2023-01-30T13:32:55;101195.97;;;3.19;57.79
42385;BME280;28042;43.986;22.860;2023-01-30T13:35:32;101202.06;;;3.11;59.28
42385;BME280;28042;43.986;22.860;2023-01-30T13:37:58;101207.59;;;3.09;59.36
42385;BME280;28042;43.986;22.860;2023-01-30T13:40:28;101202.47;;;3.06;59.91
42385;BME280;28042;43.986;22.860;2023-01-30T13:43:04;101200.50;;;3.08;59.44
42385;BME280;28042;43.986;22.860;2023-01-30T13:45:35;101207.34;;;3.22;60.79
42385;BME280;28042;43.986;22.860;2023-01-30T13:48:19;101207.59;;;3.09;59.95
42385;BME280;28042;43.986;22.860;2023-01-30T13:50:51;101204.53;;;2.93;59.60
42385;BME280;28042;43.986;22.860;2023-01-30T13:53:25;101196.81;;;3.09;60.86
42385;BME280;28042;43.986;22.860;2023-01-30T14:00:53;101184.66;;;3.25;59.96
42385;BME280;28042;43.986;22.860;2023-01-30T14:03:38;101178.81;;;3.20;59.72
42385;BME280;28042;43.986;22.860;2023-01-30T14:06:05;101172.72;;;3.18;59.49
42385;BME280;28042;43.986;22.860;2023-01-30T14:11:31;101149.75;;;3.33;60.60
42385;BME280;28042;43.986;22.860;2023-01-30T14:13:59;101157.69;;;3.34;61.63
42385;BME280;28042;43.986;22.860;2023-01-30T14:16:40;101159.09;;;3.29;61.18
42385;BME280;28042;43.986;22.860;2023-01-30T14:21:56;101144.59;;;3.10;61.10
42385;BME280;28042;43.986;22.860;2023-01-30T14:24:22;101147.72;;;3.06;62.34
42385;BME280;28042;43.986;22.860;2023-01-30T14:39:50;101099.91;;;3.08;63.75
42385;BME280;28042;43.986;22.860;2023-01-30T14:42:24;101103.19;;;3.11;63.06
42385;BME280;28042;43.986;22.860;2023-01-30T14:44:56;101111.00;;;3.15;63.67
42385;BME280;28042;43.986;22.860;2023-01-30T14:47:22;101109.41;;;3.12;62.75
42385;BME280;28042;43.986;22.860;2023-01-30T14:49:48;101116.78;;;3.00;62.93
42385;BME280;28042;43.986;22.860;2023-01-30T14:55:05;101109.97;;;2.96;65.10
42385;BME280;28042;43.986;22.860;2023-01-30T14:57:51;101106.69;;;2.83;64.89
42385;BME280;28042;43.986;22.860;2023-01-30T15:00:18;101112.34;;;2.80;65.32
42385;BME280;28042;43.986;22.860;2023-01-30T15:02:51;101118.56;;;2.71;65.70
42385;BME280;28042;43.986;22.860;2023-01-30T15:05:38;101116.69;;;2.62;65.80
42385;BME280;28042;43.986;22.860;2023-01-30T15:08:08;101108.44;;;2.53;66.93
42385;BME280;28042;43.986;22.860;2023-01-30T15:29:17;101085.00;;;2.14;74.83
42385;BME280;28042;43.986;22.860;2023-01-30T15:31:42;101089.50;;;2.04;75.59
42385;BME280;28042;43.986;22.860;2023-01-30T15:34:20;101088.59;;;1.93;76.33
42385;BME280;28042;43.986;22.860;2023-01-30T15:36:45;101080.06;;;1.88;76.87
42385;BME280;28042;43.986;22.860;2023-01-30T15:39:18;101082.56;;;1.80;77.42
42385;BME280;28042;43.986;22.860;2023-01-30T15:41:44;101088.47;;;1.74;78.19
42385;BME280;28042;43.986;22.860;2023-01-30T15:44:23;101081.63;;;1.70;78.01
42385;BME280;28042;43.986;22.860;2023-01-30T15:52:14;101075.06;;;1.63;77.92
42385;BME280;28042;43.986;22.860;2023-01-30T15:54:45;101080.47;;;1.63;79.36
42385;BME280;28042;43.986;22.860;2023-01-30T15:57:12;101081.16;;;1.65;78.62